Time;durP1;ratioP1;P1;durP2;ratioP2;P2;SDS_P1;SDS_P2;PMS_P1;PMS_P2;Temp;Humidity;BMP_temperature;BMP_pressure;BME280_temperature;BME280_humidity;BME280_pressure;Samples;Min_cycle;Max_cycle;Signal;HPM_P1;HPM_P2
2022/09/02 00:00:48;;;;;;;5.67;5.27;;;;;;;22.61;64.03;101233.16;5015723;28;103929;-50
2022/09/02 00:03:16;;;;;;;5.53;5.15;;;;;;;22.61;63.75;101238.72;5021205;27;102121;-50
2022/09/02 00:05:42;;;;;;;5.50;5.20;;;;;;;22.60;63.86;101231.53;5015548;28;102231;-50
2022/09/02 00:08:09;;;;;;;5.35;4.85;;;;;;;22.60;63.50;101231.53;5017218;28;102667;-50
2022/09/02 00:10:38;;;;;;;6.20;5.78;;;;;;;22.60;63.31;101230.72;5018657;28;104063;-50
2022/09/02 00:13:07;;;;;;;5.57;5.07;;;;;;;22.59;63.31;101229.91;5031953;28;102022;-51
2022/09/02 00:15:34;;;;;;;5.85;5.45;;;;;;;22.60;63.84;101231.53;5035880;27;102395;-50
2022/09/02 00:18:02;;;;;;;5.35;4.95;;;;;;;22.61;63.44;101232.31;5029788;27;102168;-50
2022/09/02 00:20:29;;;;;;;6.82;6.22;;;;;;;22.59;63.52;101234.66;5034804;27;104012;-50
2022/09/02 00:22:56;;;;;;;5.97;5.47;;;;;;;22.58;63.71;101235.81;5035146;27;101881;-50
2022/09/02 00:25:22;;;;;;;5.15;4.70;;;;;;;22.58;63.29;101236.63;5015547;28;101849;-50
2022/09/02 00:27:49;;;;;;;5.40;5.00;;;;;;;22.57;63.22;101234.97;5042686;27;102458;-50
2022/09/02 00:30:16;;;;;;;5.82;5.43;;;;;;;22.56;63.37;101241.69;5019636;28;103911;-50
2022/09/02 00:32:45;;;;;;;6.57;5.97;;;;;;;22.59;62.94;101243.78;5035955;27;102108;-49
2022/09/02 00:35:13;;;;;;;5.30;4.95;;;;;;;22.58;63.48;101239.38;5034714;27;102160;-50
2022/09/02 00:37:39;;;;;;;5.50;5.20;;;;;;;22.56;63.21;101241.69;5017888;27;102614;-50
2022/09/02 00:40:07;;;;;;;6.13;5.63;;;;;;;22.58;62.59;101239.38;5017959;27;103960;-50
2022/09/02 00:42:34;;;;;;;5.75;5.35;;;;;;;22.57;63.12;101239.72;5033724;27;101887;-50
2022/09/02 00:45:03;;;;;;;5.47;5.07;;;;;;;22.57;62.75;101239.72;5016011;28;102293;-50
2022/09/02 00:47:30;;;;;;;6.13;5.63;;;;;;;22.57;62.70;101239.72;5023724;28;102136;-50
2022/09/02 00:49:58;;;;;;;6.13;5.53;;;;;;;22.56;62.88;101244.44;5028011;27;103838;-50
2022/09/02 00:52:32;;;;;;;6.20;5.53;;;;;;;22.57;62.70;101250.81;5015673;28;102057;-50
2022/09/02 00:55:01;;;;;;;6.40;5.70;;;;;;;22.59;63.08;101252.09;5023653;28;101933;-50
2022/09/02 00:57:32;;;;;;;5.55;5.18;;;;;;;22.58;63.10;101253.25;5017037;27;102299;-50
2022/09/02 01:00:06;;;;;;;5.70;5.28;;;;;;;22.59;63.57;101254.06;5014480;28;103943;-50
2022/09/02 01:02:34;;;;;;;5.65;5.25;;;;;;;22.57;63.32;101248.84;5015835;28;102419;-50
2022/09/02 01:05:03;;;;;;;5.85;5.45;;;;;;;22.58;63.53;101244.13;5026122;28;102177;-50
2022/09/02 01:07:36;;;;;;;;;;;;;;;22.56;63.63;101244.44;5027473;27;102219;-50
2022/09/02 01:10:06;;;;;;;5.55;5.15;;;;;;;22.58;63.72;101244.94;5014632;28;103886;-50
2022/09/02 01:12:34;;;;;;;6.05;5.65;;;;;;;22.58;63.91;101253.25;5015128;28;102403;-50
2022/09/02 01:15:02;;;;;;;5.23;4.93;;;;;;;22.58;63.75;101250.47;5022052;28;101903;-50
2022/09/02 01:17:28;;;;;;;6.03;5.53;;;;;;;22.57;63.61;101248.84;5036551;27;102077;-50
2022/09/02 01:20:00;;;;;;;6.20;5.72;;;;;;;22.55;63.63;101240.88;5034121;27;103979;-50
2022/09/02 01:22:31;;;;;;;5.93;5.50;;;;;;;22.58;63.56;101256.03;5032703;27;102166;-50
2022/09/02 01:25:04;;;;;;;5.45;5.10;;;;;;;22.55;63.37;101248.38;5018122;27;102408;-49
2022/09/02 01:27:30;;;;;;;5.97;5.57;;;;;;;22.58;63.30;101252.44;5024518;27;102364;-50
2022/09/02 01:29:59;;;;;;;5.88;5.47;;;;;;;22.55;63.70;101251.16;5032734;27;103873;-50
2022/09/02 01:32:27;;;;;;;5.32;4.93;;;;;;;22.56;63.21;101252.78;5018447;27;102577;-50
2022/09/02 01:34:54;;;;;;;5.90;5.50;;;;;;;22.56;63.65;101252.78;5034202;27;102453;-49
2022/09/02 01:37:21;;;;;;;6.63;6.13;;;;;;;22.56;63.27;101255.53;5035537;27;102454;-50
2022/09/02 01:39:51;;;;;;;5.95;5.55;;;;;;;22.55;63.29;101256.72;5025928;27;103864;-49
2022/09/02 01:42:19;;;;;;;5.65;5.25;;;;;;;22.54;63.65;101257.88;5028036;27;102406;-50
2022/09/02 01:44:45;;;;;;;5.63;5.32;;;;;;;22.55;63.46;101256.72;5014304;28;102469;-50
2022/09/02 01:47:13;;;;;;;5.97;5.50;;;;;;;22.56;63.52;101266.66;5020909;28;102427;-50
2022/09/02 01:49:40;;;;;;;6.70;6.30;;;;;;;22.55;63.40;101268.59;5013861;28;104191;-50
2022/09/02 01:52:07;;;;;;;5.75;5.43;;;;;;;22.55;63.33;101267.81;5032571;27;102792;-51
2022/09/02 01:54:34;;;;;;;5.97;5.57;;;;;;;22.55;63.15;101267.81;5034431;27;102040;-50
2022/09/02 01:57:02;;;;;;;6.40;5.93;;;;;;;22.55;63.03;101267.81;5034979;27;102607;-50
2022/09/02 01:59:29;;;;;;;6.47;5.97;;;;;;;22.54;63.36;101267.00;5033600;27;103879;-50
2022/09/02 02:01:55;;;;;;;6.70;6.10;;;;;;;22.56;62.93;101269.41;5034193;27;102332;-50
2022/09/02 02:04:23;;;;;;;6.05;5.65;;;;;;;22.55;63.15;101278.91;5021538;28;102085;-50
2022/09/02 02:06:50;;;;;;;6.93;5.50;;;;;;;22.54;62.80;101272.53;5021795;28;102575;-53
2022/09/02 02:09:18;;;;;;;6.50;6.10;;;;;;;22.54;63.09;101272.53;5034000;27;103952;-50
2022/09/02 02:11:44;;;;;;;5.63;5.32;;;;;;;22.53;63.23;101278.41;5023878;28;102109;-50
2022/09/02 02:14:13;;;;;;;5.88;5.38;;;;;;;22.53;63.16;101272.88;5033363;27;102258;-50
2022/09/02 02:16:39;;;;;;;6.15;4.97;;;;;;;22.53;63.19;101281.19;5015031;28;102169;-50
2022/09/02 02:19:06;;;;;;;5.85;5.45;;;;;;;22.55;63.19;101284.44;5013655;28;103944;-50
2022/09/02 02:21:34;;;;;;;6.28;5.85;;;;;;;22.52;63.16;101280.38;5014396;28;101953;-50
2022/09/02 02:24:01;;;;;;;6.13;5.72;;;;;;;22.53;63.18;101281.19;5025202;27;102023;-50
2022/09/02 02:26:28;;;;;;;5.68;5.28;;;;;;;22.52;63.32;101282.34;5032254;27;102210;-51
2022/09/02 02:28:55;;;;;;;6.20;5.80;;;;;;;22.52;63.35;101285.94;5015630;28;103700;-50
2022/09/02 02:31:23;;;;;;;6.53;5.93;;;;;;;22.52;63.41;101288.69;5029302;27;102418;-50
2022/09/02 02:33:50;;;;;;;7.85;6.10;;;;;;;22.52;63.34;101291.47;5013578;28;102259;-50
2022/09/02 02:36:17;;;;;;;5.90;5.40;;;;;;;22.51;63.63;101292.63;5021708;28;102283;-50
2022/09/02 02:38:45;;;;;;;5.85;5.55;;;;;;;22.51;63.49;101294.59;5026954;27;103870;-50
2022/09/02 02:41:13;;;;;;;6.07;5.77;;;;;;;22.51;63.21;101289.84;5047109;27;102333;-50
2022/09/02 02:43:39;;;;;;;6.25;5.93;;;;;;;22.51;63.17;101291.81;5040275;27;102424;-50
2022/09/02 02:46:07;;;;;;;6.10;5.50;;;;;;;22.50;63.28;101284.63;5032485;27;102147;-50
2022/09/02 02:48:36;;;;;;;5.88;5.47;;;;;;;22.49;63.02;101296.88;5036633;27;104149;-50
2022/09/02 02:51:03;;;;;;;6.35;6.00;;;;;;;22.50;63.06;101304.03;5028221;27;102076;-50
2022/09/02 02:53:30;;;;;;;5.93;5.45;;;;;;;22.48;62.75;101307.16;5016955;28;101967;-50
2022/09/02 02:55:57;;;;;;;6.38;5.97;;;;;;;22.49;63.26;101307.97;5027126;28;102542;-50
2022/09/02 02:58:23;;;;;;;6.07;5.65;;;;;;;22.50;63.05;101317.91;5036008;27;103994;-50
2022/09/02 03:00:50;;;;;;;5.82;5.40;;;;;;;22.50;62.95;101315.13;5036710;27;102331;-50
2022/09/02 03:03:18;;;;;;;6.68;6.28;;;;;;;22.51;62.92;101322.34;5034974;27;102369;-51
2022/09/02 03:05:47;;;;;;;6.38;5.97;;;;;;;22.49;63.43;101314.34;5029446;28;102281;-50
2022/09/02 03:08:17;;;;;;;5.70;5.40;;;;;;;22.50;63.06;101317.91;5023717;28;104044;-50
2022/09/02 03:10:50;;;;;;;5.47;5.18;;;;;;;22.47;63.08;101308.31;5015889;28;102351;-50
2022/09/02 03:13:17;;;;;;;6.15;5.80;;;;;;;22.48;63.23;101309.13;5016527;28;102453;-50
2022/09/02 03:15:44;;;;;;;6.38;5.97;;;;;;;22.47;63.32;101310.28;5017894;28;102145;-50
2022/09/02 03:18:11;;;;;;;6.32;5.82;;;;;;;22.49;63.04;101319.06;5026162;28;103936;-50
2022/09/02 03:20:38;;;;;;;5.75;5.45;;;;;;;22.48;63.01;101321.03;5027479;28;102609;-50
2022/09/02 03:23:06;;;;;;;7.53;6.65;;;;;;;22.48;62.84;101317.47;5036996;27;101940;-51
2022/09/02 03:25:34;;;;;;;5.53;5.22;;;;;;;22.48;62.96;101323.00;5035572;27;102307;-50
2022/09/02 03:28:02;;;;;;;6.05;5.65;;;;;;;22.49;62.72;101319.06;5029935;27;103986;-50
2022/09/02 03:30:31;;;;;;;6.00;5.70;;;;;;;22.48;62.46;101320.22;5016323;28;102116;-50
2022/09/02 03:33:00;;;;;;;6.75;6.00;;;;;;;22.47;62.48;101340.81;5016517;28;102380;-50
2022/09/02 03:35:28;;;;;;;6.80;6.30;;;;;;;22.48;62.26;101340.44;5017112;28;102451;-48
2022/09/02 03:37:55;;;;;;;6.28;5.70;;;;;;;22.49;62.56;101352.34;5032891;27;103912;-50
2022/09/02 03:40:25;;;;;;;6.32;5.93;;;;;;;22.48;62.76;101346.00;5041401;27;102462;-50
2022/09/02 03:42:53;;;;;;;6.07;5.68;;;;;;;22.48;62.84;101354.31;5048249;27;102199;-50
2022/09/02 03:45:19;;;;;;;6.00;5.70;;;;;;;22.48;62.77;101359.88;5017545;28;102232;-49
2022/09/02 03:47:52;;;;;;;5.20;4.95;;;;;;;22.48;62.83;101361.84;5015723;28;103882;-49
2022/09/02 03:50:21;;;;;;;6.93;6.32;;;;;;;22.47;63.28;101365.75;5016648;28;102066;-50
2022/09/02 03:52:49;;;;;;;6.05;5.70;;;;;;;22.48;62.89;101364.59;5014878;28;102501;-49
2022/09/02 03:55:17;;;;;;;6.68;6.18;;;;;;;22.49;63.04;101369.00;5026470;27;102357;-50
2022/09/02 03:57:45;;;;;;;6.60;6.13;;;;;;;22.47;63.01;101371.31;5015549;28;103925;-50
2022/09/02 04:00:13;;;;;;;5.77;5.47;;;;;;;22.49;63.08;101380.91;5015867;28;102329;-50
2022/09/02 04:02:40;;;;;;;6.55;6.15;;;;;;;22.49;63.09;101382.88;5022219;28;102336;-50
2022/09/02 04:05:07;;;;;;;6.75;6.28;;;;;;;22.49;63.16;101380.09;5027275;27;102579;-50
2022/09/02 04:07:35;;;;;;;5.87;5.47;;;;;;;22.49;63.47;101380.09;5035485;27;103939;-50
2022/09/02 04:10:02;;;;;;;6.30;5.97;;;;;;;22.49;63.43;101380.09;5036125;27;102071;-50
2022/09/02 04:12:29;;;;;;;5.23;4.93;;;;;;;22.49;63.25;101377.31;5026657;27;102083;-50
2022/09/02 04:14:57;;;;;;;6.30;5.90;;;;;;;22.48;63.41;101375.69;5026189;27;102289;-50
2022/09/02 04:17:24;;;;;;;6.10;5.67;;;;;;;22.48;63.33;101379.28;5035307;27;103969;-50
2022/09/02 04:19:53;;;;;;;5.82;5.53;;;;;;;22.49;63.30;101378.13;5018611;27;102330;-50
2022/09/02 04:22:20;;;;;;;6.32;5.93;;;;;;;22.49;63.40;101377.31;5016041;28;102536;-50
2022/09/02 04:24:46;;;;;;;6.13;5.72;;;;;;;22.49;63.20;101380.09;5029803;27;102360;-50
2022/09/02 04:27:12;;;;;;;5.60;5.30;;;;;;;22.49;63.14;101374.53;5030442;27;104046;-50
2022/09/02 04:29:39;;;;;;;6.32;5.97;;;;;;;22.47;63.07;101377.66;5035098;27;102509;-50
2022/09/02 04:32:07;;;;;;;6.03;5.63;;;;;;;22.47;63.27;101377.66;5029087;27;102421;-50
2022/09/02 04:34:35;;;;;;;6.22;5.82;;;;;;;22.46;62.88;101369.66;5022863;27;102267;-50
2022/09/02 04:37:02;;;;;;;6.00;5.45;;;;;;;22.47;62.65;101379.63;5024260;27;104118;-50
2022/09/02 04:39:28;;;;;;;6.43;6.03;;;;;;;22.46;62.49;101380.75;5021342;28;102259;-49
2022/09/02 04:41:55;;;;;;;5.80;5.50;;;;;;;22.46;62.01;101383.53;5036388;27;102190;-50
2022/09/02 04:44:21;;;;;;;7.70;7.10;;;;;;;22.47;62.55;101376.84;5028948;28;102126;-50
2022/09/02 04:46:48;;;;;;;6.70;6.20;;;;;;;22.44;61.77;101371.97;5024087;27;104006;-50
2022/09/02 04:49:16;;;;;;;6.35;5.85;;;;;;;22.44;61.90;101374.75;5030771;27;102301;-50
2022/09/02 04:51:43;;;;;;;6.88;6.40;;;;;;;22.43;61.92;101381.44;5024187;27;102258;-50
2022/09/02 04:54:10;;;;;;;6.57;6.13;;;;;;;22.44;62.03;101380.31;5028353;27;102251;-50
2022/09/02 04:56:37;;;;;;;6.10;5.70;;;;;;;22.44;62.10;101383.06;5020686;27;104014;-50
2022/09/02 04:59:04;;;;;;;6.78;6.32;;;;;;;22.40;61.42;101377.38;5015295;28;102764;-50
2022/09/02 05:01:33;;;;;;;6.72;6.22;;;;;;;22.43;61.77;101387.81;5014736;28;102260;-50
2022/09/02 05:04:01;;;;;;;;;;;;;;;22.43;61.74;101398.06;5035397;27;102593;-50
2022/09/02 05:06:29;;;;;;;;;;;;;;;22.43;61.74;101398.91;5035551;27;103971;-50
2022/09/02 05:08:59;;;;;;;6.00;5.40;;;;;;;22.43;60.90;101409.16;5035034;27;102180;-50
2022/09/02 05:11:28;;;;;;;6.18;5.57;;;;;;;22.43;61.23;101417.47;5024782;27;102402;-50
2022/09/02 05:13:58;;;;;;;6.50;6.00;;;;;;;22.44;61.43;101410.81;5023551;28;102159;-50
2022/09/02 05:16:26;;;;;;;7.07;6.47;;;;;;;22.44;61.23;101410.81;5014297;28;103772;-50
2022/09/02 05:18:54;;;;;;;;;;;;;;;22.43;61.09;101409.16;5017506;28;102058;-50
2022/09/02 05:21:22;;;;;;;6.80;6.20;;;;;;;22.43;61.20;101409.16;5034643;27;102198;-50
2022/09/02 05:23:50;;;;;;;6.38;5.90;;;;;;;22.45;61.37;101406.88;5035430;27;102193;-50
2022/09/02 05:26:17;;;;;;;5.35;5.05;;;;;;;22.44;61.86;101408.03;5033628;27;103913;-50
2022/09/02 05:28:44;;;;;;;6.63;6.13;;;;;;;22.43;61.50;101411.94;5021601;27;102271;-50
2022/09/02 05:31:13;;;;;;;6.65;6.10;;;;;;;22.43;61.45;101406.38;5042411;27;102043;-50
2022/09/02 05:33:41;;;;;;;5.00;4.68;;;;;;;22.44;61.84;101410.81;5019355;27;102150;-50
2022/09/02 05:36:11;;;;;;;6.57;6.07;;;;;;;22.44;61.49;101408.03;5018138;28;103933;-50
2022/09/02 05:38:39;;;;;;;6.40;5.80;;;;;;;22.43;61.73;101410.00;5025925;27;103654;-50
2022/09/02 05:41:08;;;;;;;7.07;6.40;;;;;;;22.44;61.27;101399.72;5036154;27;102362;-50
2022/09/02 05:43:37;;;;;;;5.28;4.78;;;;;;;22.44;61.86;101392.19;5018891;27;102252;-50
2022/09/02 05:46:06;;;;;;;6.38;5.85;;;;;;;22.45;61.51;101401.34;5014158;28;103869;-49
2022/09/02 05:51:19;;;;;;;6.38;5.97;;;;;;;22.43;61.14;101400.84;5031151;27;102612;-50
2022/09/02 05:53:46;;;;;;;5.32;4.75;;;;;;;22.43;61.46;101398.91;5030462;27;102456;-49
2022/09/02 05:56:14;;;;;;;5.85;5.40;;;;;;;22.45;61.48;101401.34;5029265;27;104293;-50
2022/09/02 05:58:41;;;;;;;6.97;6.27;;;;;;;22.44;61.24;101400.53;5025051;27;102340;-50
2022/09/02 06:01:09;;;;;;;5.97;5.57;;;;;;;22.45;61.34;101409.66;5034117;27;102434;-50
2022/09/02 06:03:35;;;;;;;6.85;6.35;;;;;;;22.45;61.53;101395.78;5016008;27;102271;-50
2022/09/02 06:06:02;;;;;;;5.78;5.35;;;;;;;22.44;61.36;101394.97;5014068;28;104204;-50
2022/09/02 06:08:29;;;;;;;5.80;5.30;;;;;;;22.45;61.70;101406.88;5014853;28;102231;-50
2022/09/02 06:10:56;;;;;;;5.70;5.30;;;;;;;22.45;60.96;101401.34;5024222;27;102066;-50
2022/09/02 06:13:24;;;;;;;5.68;5.28;;;;;;;22.46;60.72;101403.75;5015694;28;102472;-50
2022/09/02 06:15:50;;;;;;;8.30;5.90;;;;;;;22.46;60.50;101403.75;5015045;28;103965;-49
2022/09/02 06:18:18;;;;;;;6.15;5.75;;;;;;;22.46;60.56;101420.41;5027026;27;102030;-50
2022/09/02 06:20:46;;;;;;;5.68;5.15;;;;;;;22.47;60.72;101421.22;5037400;27;102210;-50
2022/09/02 06:23:15;;;;;;;5.95;5.45;;;;;;;22.48;61.19;101420.88;5038704;27;102258;-50
2022/09/02 06:25:44;;;;;;;6.35;5.50;;;;;;;22.49;60.25;101424.47;5036837;27;103937;-50
2022/09/02 06:28:12;;;;;;;5.68;5.28;;;;;;;22.49;60.96;101430.81;5031670;27;101966;-50
2022/09/02 06:30:43;;;;;;;6.05;5.47;;;;;;;22.50;60.88;101428.88;5048583;27;102243;-50
2022/09/02 06:33:10;;;;;;;6.18;5.70;;;;;;;22.50;60.67;101420.53;5020870;28;102096;-50
2022/09/02 06:35:38;;;;;;;5.40;5.00;;;;;;;22.51;60.55;101428.53;5018848;27;104159;-50
2022/09/02 06:38:06;;;;;;;5.88;5.38;;;;;;;22.51;60.89;101422.19;5017468;28;102387;-50
2022/09/02 06:40:33;;;;;;;6.45;5.93;;;;;;;22.52;60.12;101415.47;5034837;27;102267;-50
2022/09/02 06:42:59;;;;;;;6.40;5.78;;;;;;;22.51;59.95;101417.44;5024644;27;102385;-50
2022/09/02 06:45:26;;;;;;;7.32;5.50;;;;;;;22.52;59.98;101423.81;5031354;27;103899;-50
2022/09/02 06:47:54;;;;;;;6.45;5.70;;;;;;;22.51;60.54;101424.97;5034140;27;102144;-50
2022/09/02 06:50:20;;;;;;;6.32;5.82;;;;;;;22.52;59.94;101418.25;5016675;28;101954;-50
2022/09/02 06:52:48;;;;;;;6.25;5.60;;;;;;;22.52;60.04;101421.03;5018608;28;102331;-51
2022/09/02 06:55:16;;;;;;;6.03;5.53;;;;;;;22.53;60.10;101419.88;5016636;28;103876;-50
2022/09/02 06:57:43;;;;;;;7.30;6.72;;;;;;;22.54;60.30;101416.78;5017334;28;102477;-50
2022/09/02 07:00:10;;;;;;;6.85;6.20;;;;;;;22.56;60.25;101424.75;5034886;27;102611;-50
2022/09/02 07:02:37;;;;;;;5.57;5.07;;;;;;;22.56;60.29;101419.22;5038458;27;102386;-50
2022/09/02 07:05:10;;;;;;;6.53;6.00;;;;;;;22.57;60.33;101414.47;5030023;27;103886;-50
2022/09/02 07:07:39;;;;;;;6.95;6.25;;;;;;;22.59;60.22;101399.13;5030884;28;102330;-50
2022/09/02 07:10:08;;;;;;;7.50;6.47;;;;;;;22.58;60.13;101403.06;5035972;27;102332;-50
2022/09/02 07:12:35;;;;;;;7.10;6.60;;;;;;;22.58;60.21;101402.25;5017653;27;102299;-50
2022/09/02 07:15:03;;;;;;;6.85;6.35;;;;;;;22.58;60.34;101410.56;5022959;28;103999;-50
2022/09/02 07:17:29;;;;;;;7.35;6.78;;;;;;;22.59;59.76;101417.72;5016985;28;102187;-50
2022/09/02 07:19:58;;;;;;;8.40;6.80;;;;;;;22.59;59.14;101424.09;5035735;27;102325;-50
2022/09/02 07:22:27;;;;;;;7.60;6.90;;;;;;;22.59;60.00;101424.09;5032008;27;102443;-51
2022/09/02 07:24:53;;;;;;;7.00;6.30;;;;;;;22.60;59.07;101425.72;5016243;28;103853;-50
2022/09/02 07:27:20;;;;;;;6.53;6.03;;;;;;;22.61;60.22;101416.25;5029686;27;102463;-50
2022/09/02 07:29:47;;;;;;;6.60;6.05;;;;;;;22.62;60.04;101423.41;5030617;27;102307;-50
2022/09/02 07:32:14;;;;;;;7.97;6.93;;;;;;;22.63;60.52;101422.25;5023424;28;102131;-50
2022/09/02 07:34:42;;;;;;;6.88;6.28;;;;;;;22.63;59.91;101424.22;5028911;27;105025;-50
2022/09/02 07:37:09;;;;;;;7.63;6.45;;;;;;;22.64;60.71;101426.66;5031501;27;102013;-49
2022/09/02 07:39:38;;;;;;;8.07;6.43;;;;;;;22.66;58.57;101432.69;5016606;27;102028;-49
2022/09/02 07:42:05;;;;;;;7.13;6.43;;;;;;;22.65;60.98;101433.84;5034393;27;102384;-49
2022/09/02 07:44:31;;;;;;;7.50;6.75;;;;;;;22.63;60.77;101435.31;5023940;27;104146;-50
2022/09/02 07:46:58;;;;;;;7.35;6.72;;;;;;;22.62;60.38;101440.06;5022639;27;102646;-50
2022/09/02 07:49:27;;;;;;;7.60;6.88;;;;;;;22.61;60.21;101437.59;5028896;27;102661;-50
2022/09/02 07:51:53;;;;;;;7.93;6.95;;;;;;;22.63;60.39;101450.00;5024907;27;102220;-50
2022/09/02 07:54:23;;;;;;;8.75;7.90;;;;;;;22.62;60.74;101448.38;5030925;28;103857;-50
2022/09/02 07:56:51;;;;;;;7.78;7.07;;;;;;;22.61;60.93;101455.09;5020957;27;102265;-50
2022/09/02 07:59:20;;;;;;;9.07;7.35;;;;;;;22.60;61.25;101453.44;5029809;27;102370;-50
2022/09/02 08:01:48;;;;;;;10.15;6.55;;;;;;;22.59;60.78;101446.28;5031826;27;102581;-50
2022/09/02 08:04:15;;;;;;;7.13;6.43;;;;;;;22.59;60.95;101449.06;5027398;27;103925;-50
2022/09/02 08:06:43;;;;;;;6.93;6.22;;;;;;;22.62;60.07;101453.94;5025620;28;102333;-49
2022/09/02 08:09:10;;;;;;;6.47;5.90;;;;;;;22.65;60.84;101455.25;5015452;28;102428;-50
2022/09/02 08:11:38;;;;;;;7.90;7.10;;;;;;;22.67;54.94;101450.97;5018960;28;102477;-49
2022/09/02 08:14:08;;;;;;;6.13;5.60;;;;;;;22.70;58.07;101444.75;5020313;27;104018;-50
2022/09/02 08:16:37;;;;;;;8.60;6.18;;;;;;;22.71;56.82;101443.59;5029782;27;102016;-50
2022/09/02 08:19:04;;;;;;;8.00;6.35;;;;;;;22.71;56.22;101442.78;5035331;27;102019;-50
2022/09/02 08:21:31;;;;;;;8.43;6.35;;;;;;;22.74;53.06;101442.91;5027624;27;102211;-50
2022/09/02 08:23:59;;;;;;;6.68;6.00;;;;;;;22.73;57.40;101446.84;5031083;27;104128;-50
2022/09/02 08:26:27;;;;;;;7.07;6.38;;;;;;;22.71;60.95;101448.31;5029623;27;102573;-50
2022/09/02 08:28:53;;;;;;;7.45;6.15;;;;;;;22.69;60.40;101440.34;5028066;27;102215;-50
2022/09/02 08:31:22;;;;;;;6.57;5.97;;;;;;;22.71;56.47;101438.03;5026464;27;102724;-50
2022/09/02 08:33:48;;;;;;;6.38;5.85;;;;;;;22.76;56.44;101440.63;5026548;28;103848;-50
2022/09/02 08:36:15;;;;;;;6.45;5.90;;;;;;;22.78;55.29;101441.09;5025172;27;101962;-50
2022/09/02 08:38:41;;;;;;;6.15;5.53;;;;;;;22.81;54.42;101436.84;5026132;28;102119;-50
2022/09/02 08:41:16;;;;;;;6.10;5.60;;;;;;;22.77;57.92;101442.25;5038678;27;102465;-50
2022/09/02 08:43:43;;;;;;;6.22;5.75;;;;;;;22.76;56.54;101432.31;5029563;27;104177;-50
2022/09/02 08:46:13;;;;;;;6.03;5.53;;;;;;;22.75;58.72;101432.63;5018028;28;102355;-50
2022/09/02 08:48:45;;;;;;;6.07;5.68;;;;;;;22.77;57.97;101436.69;5034180;27;102432;-50
2022/09/02 08:51:18;;;;;;;6.72;6.20;;;;;;;22.77;60.51;101425.59;5018783;28;102037;-50
2022/09/02 08:53:51;;;;;;;5.70;5.30;;;;;;;22.74;58.14;101437.38;5023952;27;104182;-50
2022/09/02 08:56:18;;;;;;;5.85;5.28;;;;;;;22.78;58.79;101437.50;5016570;27;102121;-50
2022/09/02 08:58:49;;;;;;;6.22;5.65;;;;;;;22.80;57.49;101429.66;5034864;27;102177;-50
2022/09/02 09:01:24;;;;;;;6.30;5.70;;;;;;;22.81;57.17;101425.75;5030961;27;102443;-50
2022/09/02 09:04:11;;;;;;;7.22;5.38;;;;;;;22.79;56.78;101417.75;5018229;28;104109;-50
2022/09/02 09:06:52;;;;;;;5.95;5.45;;;;;;;22.79;55.24;101417.75;5019080;28;101939;-49
2022/09/02 09:09:30;;;;;;;5.50;5.00;;;;;;;22.83;56.41;101425.38;5019357;27;102703;-50
2022/09/02 09:12:09;;;;;;;5.93;5.28;;;;;;;22.83;57.78;101425.38;5024561;27;102500;-49
2022/09/02 09:14:42;;;;;;;5.80;5.22;;;;;;;22.79;56.94;101423.31;5022586;27;104079;-50
2022/09/02 09:17:16;;;;;;;6.68;5.35;;;;;;;22.77;59.73;101420.06;5029459;27;102483;-50
2022/09/02 09:19:48;;;;;;;6.30;5.18;;;;;;;22.78;58.69;101413.34;5027907;27;102408;-50
2022/09/02 09:22:18;;;;;;;5.70;5.20;;;;;;;22.76;56.59;101415.66;5027603;27;103644;-50
2022/09/02 09:24:48;;;;;;;5.40;5.00;;;;;;;22.75;62.19;101415.97;5018458;27;103965;-50
2022/09/02 09:27:16;;;;;;;6.10;5.03;;;;;;;22.73;62.14;101416.31;5021037;27;102231;-50
2022/09/02 09:29:43;;;;;;;5.95;5.35;;;;;;;22.75;61.48;101415.97;5020679;27;102109;-51
2022/09/02 09:32:22;;;;;;;5.88;5.53;;;;;;;22.77;56.38;101419.25;5020975;27;102278;-51
2022/09/02 09:35:01;;;;;;;;;;;;;;;22.78;52.91;101416.13;5025551;27;103917;-51
2022/09/02 09:37:32;;;;;;;5.70;5.28;;;;;;;22.79;60.50;101416.94;5016667;27;102228;-51
2022/09/02 09:39:59;;;;;;;5.10;4.60;;;;;;;22.74;60.59;101426.25;5026316;27;102362;-51
2022/09/02 09:42:32;;;;;;;4.97;4.63;;;;;;;22.72;60.86;101423.03;5033148;27;102228;-51
2022/09/02 09:44:58;;;;;;;4.63;4.22;;;;;;;22.73;61.50;101430.19;5018644;28;104140;-50
2022/09/02 09:47:26;;;;;;;5.18;4.78;;;;;;;22.70;61.77;101425.31;5029306;27;102409;-51
2022/09/02 09:50:10;;;;;;;6.28;4.80;;;;;;;22.69;62.06;101432.03;5026446;27;102593;-51
2022/09/02 09:52:37;;;;;;;5.70;4.63;;;;;;;22.70;61.22;101419.78;5027954;27;102663;-50
2022/09/02 09:55:11;;;;;;;6.60;5.45;;;;;;;22.70;58.71;101425.31;5021967;28;103904;-50
2022/09/02 09:57:39;;;;;;;5.28;4.78;;;;;;;22.72;61.83;101424.97;5026717;27;102064;-50
2022/09/02 10:00:25;;;;;;;7.22;5.15;;;;;;;22.69;59.66;101428.44;5030920;27;102184;-50
2022/09/02 10:02:54;;;;;;;6.03;5.47;;;;;;;22.72;59.83;101438.84;5028630;27;102584;-51
2022/09/02 10:05:33;;;;;;;6.65;6.00;;;;;;;22.71;61.97;101426.94;5029202;27;103702;-51
2022/09/02 10:08:01;;;;;;;5.47;5.03;;;;;;;22.70;62.67;101428.09;5028085;27;102265;-50
2022/09/02 10:10:30;;;;;;;7.50;5.72;;;;;;;22.70;61.63;101436.41;5028764;27;102301;-51
2022/09/02 10:12:59;;;;;;;5.32;4.90;;;;;;;22.71;62.27;101426.94;5029781;27;102377;-50
2022/09/02 10:15:39;;;;;;;7.25;5.50;;;;;;;22.69;62.18;101415.38;5030084;27;103949;-51
2022/09/02 10:18:19;;;;;;;5.40;4.90;;;;;;;22.69;61.54;101417.34;5018636;27;103551;-50
2022/09/02 10:21:02;;;;;;;5.88;5.43;;;;;;;22.69;60.81;101415.38;5029887;27;102215;-50
2022/09/02 10:23:43;;;;;;;6.05;5.45;;;;;;;22.68;62.34;101416.50;5030618;27;102418;-50
2022/09/02 10:26:24;;;;;;;4.65;4.25;;;;;;;22.68;60.90;101405.41;5027719;27;103962;-50
2022/09/02 10:29:34;;;;;;;5.97;5.38;;;;;;;22.67;61.91;101412.13;5028452;27;102431;-50
2022/09/02 10:32:18;;;;;;;5.13;4.78;;;;;;;22.67;57.28;101414.88;5030661;27;102023;-51
2022/09/02 10:34:56;;;;;;;5.07;4.78;;;;;;;22.68;62.03;101413.72;5028511;27;102130;-50
2022/09/02 10:37:29;;;;;;;5.57;5.13;;;;;;;22.67;59.83;101409.34;5028105;27;103838;-50
2022/09/02 10:40:08;;;;;;;5.15;4.53;;;;;;;22.66;62.24;101404.94;5028413;27;104553;-50
2022/09/02 10:42:47;;;;;;;5.78;4.15;;;;;;;22.66;62.35;101413.28;5034884;27;102065;-50
2022/09/02 10:45:18;;;;;;;5.43;4.93;;;;;;;22.67;62.12;101409.34;5031896;27;102218;-50
2022/09/02 10:47:55;;;;;;;5.20;4.18;;;;;;;22.65;61.38;101411.66;5019037;27;106194;-50
2022/09/02 10:50:30;;;;;;;4.97;4.43;;;;;;;22.65;62.14;101406.09;5019199;27;102366;-50
2022/09/02 10:53:19;;;;;;;5.40;4.93;;;;;;;22.64;62.09;101396.13;5031410;27;102297;-50
2022/09/02 10:55:57;;;;;;;4.70;4.30;;;;;;;22.64;61.66;101393.38;5024476;27;102539;-50
2022/09/02 10:58:36;;;;;;;6.83;4.63;;;;;;;22.65;61.78;101396.97;5030802;27;103974;-50
2022/09/02 11:01:06;;;;;;;4.70;4.40;;;;;;;22.63;61.67;101391.75;5026515;27;102402;-50
2022/09/02 11:03:39;;;;;;;4.97;4.68;;;;;;;22.63;61.81;101397.28;5026476;27;102697;-50
2022/09/02 11:06:12;;;;;;;4.97;4.57;;;;;;;22.63;61.82;101391.75;5029964;27;102134;-50
2022/09/02 11:08:45;;;;;;;6.38;4.47;;;;;;;22.61;61.57;101390.44;5024535;28;104153;-50
2022/09/02 11:11:20;;;;;;;5.38;4.32;;;;;;;22.63;61.64;101385.38;5028257;27;102105;-50
2022/09/02 11:13:58;;;;;;;5.20;4.70;;;;;;;22.61;61.59;101380.19;5028622;27;102189;-51
2022/09/02 11:16:29;;;;;;;6.15;4.43;;;;;;;22.60;61.93;101386.88;5031249;27;102391;-50
2022/09/02 11:19:01;;;;;;;5.22;4.35;;;;;;;22.61;62.22;101374.66;5028074;27;104232;-51
2022/09/02 11:21:41;;;;;;;5.38;4.88;;;;;;;22.60;61.71;101381.31;5029649;27;102544;-50
2022/09/02 11:24:14;;;;;;;8.70;4.65;;;;;;;22.59;62.06;101368.59;5028314;27;102651;-50
2022/09/02 11:26:51;;;;;;;6.38;4.68;;;;;;;22.59;61.83;101370.56;5022514;28;102517;-50
2022/09/02 11:29:24;;;;;;;4.70;4.30;;;;;;;22.61;61.36;101359.94;5017119;28;108110;-50
2022/09/02 11:32:01;;;;;;;4.80;4.40;;;;;;;22.59;61.84;101357.50;5017069;27;102485;-50